Terminal Aerodrome Forecast
Issued by NWS Charleston, WV

Current Version | Previous Version | Text Only | Print | Product List | Glossary Off
Versions: 1 2 3 4 5 6 7 8 9 10 11 12 13 14 15 16 17 18 19 20 21

626
FTUS41 KRLX 211732
TAFHTS
TAF
KHTS 211732Z 2118/2218 35004KT P6SM OVC015
     FM212000 33004KT P6SM BKN025
     FM212200 33004KT P6SM BKN040
     FM220700 34008G14KT P6SM SCT100
     FM221300 01006KT P6SM FEW200=

USA.gov is the U.S. government's official web portal to all federal, state and local government web resources and services.